sensor_id;sensor_type;location;lat;lon;timestamp;P1;durP1;ratioP1;P2;durP2;ratioP2
10884;SDS011;5495;53.252;10.390;2023-04-03T00:00:57;4.70;;;2.57;;
10884;SDS011;5495;53.252;10.390;2023-04-03T00:03:24;6.03;;;2.60;;
10884;SDS011;5495;53.252;10.390;2023-04-03T00:05:56;4.87;;;2.60;;
10884;SDS011;5495;53.252;10.390;2023-04-03T00:08:39;6.63;;;2.53;;
10884;SDS011;5495;53.252;10.390;2023-04-03T00:11:14;7.23;;;3.20;;
10884;SDS011;5495;53.252;10.390;2023-04-03T00:13:46;4.93;;;2.40;;
10884;SDS011;5495;53.252;10.390;2023-04-03T00:16:16;5.67;;;2.50;;
10884;SDS011;5495;53.252;10.390;2023-04-03T00:18:50;7.03;;;2.00;;
10884;SDS011;5495;53.252;10.390;2023-04-03T00:21:34;6.50;;;2.00;;
10884;SDS011;5495;53.252;10.390;2023-04-03T00:24:01;3.30;;;1.73;;
10884;SDS011;5495;53.252;10.390;2023-04-03T00:26:31;7.57;;;2.40;;
10884;SDS011;5495;53.252;10.390;2023-04-03T00:29:04;6.03;;;2.40;;
10884;SDS011;5495;53.252;10.390;2023-04-03T00:31:43;5.23;;;2.43;;
10884;SDS011;5495;53.252;10.390;2023-04-03T00:34:15;9.10;;;2.40;;
10884;SDS011;5495;53.252;10.390;2023-04-03T00:37:00;3.50;;;1.67;;
10884;SDS011;5495;53.252;10.390;2023-04-03T00:39:29;4.43;;;1.80;;
10884;SDS011;5495;53.252;10.390;2023-04-03T00:41:59;6.87;;;2.03;;
10884;SDS011;5495;53.252;10.390;2023-04-03T00:47:31;8.67;;;2.20;;
10884;SDS011;5495;53.252;10.390;2023-04-03T00:50:01;7.13;;;2.53;;
10884;SDS011;5495;53.252;10.390;2023-04-03T00:52:29;3.30;;;1.73;;
10884;SDS011;5495;53.252;10.390;2023-04-03T00:55:07;6.27;;;2.00;;
10884;SDS011;5495;53.252;10.390;2023-04-03T00:57:35;4.50;;;1.93;;
10884;SDS011;5495;53.252;10.390;2023-04-03T01:02:47;4.53;;;2.33;;
10884;SDS011;5495;53.252;10.390;2023-04-03T01:05:19;5.90;;;2.50;;
10884;SDS011;5495;53.252;10.390;2023-04-03T01:07:50;8.33;;;2.80;;
10884;SDS011;5495;53.252;10.390;2023-04-03T01:10:24;6.87;;;3.10;;
10884;SDS011;5495;53.252;10.390;2023-04-03T01:12:54;5.80;;;2.47;;
10884;SDS011;5495;53.252;10.390;2023-04-03T01:15:22;5.83;;;2.30;;
10884;SDS011;5495;53.252;10.390;2023-04-03T01:17:53;5.57;;;2.40;;
10884;SDS011;5495;53.252;10.390;2023-04-03T01:20:45;6.53;;;2.23;;
10884;SDS011;5495;53.252;10.390;2023-04-03T01:26:58;5.27;;;2.07;;
10884;SDS011;5495;53.252;10.390;2023-04-03T01:29:29;8.13;;;2.07;;
10884;SDS011;5495;53.252;10.390;2023-04-03T01:32:00;7.17;;;2.40;;
10884;SDS011;5495;53.252;10.390;2023-04-03T01:34:28;4.87;;;2.10;;
10884;SDS011;5495;53.252;10.390;2023-04-03T01:36:58;5.63;;;1.87;;
10884;SDS011;5495;53.252;10.390;2023-04-03T01:39:28;3.60;;;2.10;;
10884;SDS011;5495;53.252;10.390;2023-04-03T01:41:55;5.90;;;2.00;;
10884;SDS011;5495;53.252;10.390;2023-04-03T01:44:26;2.57;;;1.77;;
10884;SDS011;5495;53.252;10.390;2023-04-03T01:46:54;4.13;;;1.70;;
10884;SDS011;5495;53.252;10.390;2023-04-03T01:49:25;5.23;;;2.17;;
10884;SDS011;5495;53.252;10.390;2023-04-03T01:52:09;3.33;;;2.00;;
10884;SDS011;5495;53.252;10.390;2023-04-03T01:54:39;4.77;;;2.00;;
10884;SDS011;5495;53.252;10.390;2023-04-03T01:57:08;3.93;;;1.90;;
10884;SDS011;5495;53.252;10.390;2023-04-03T01:59:38;5.37;;;1.93;;
10884;SDS011;5495;53.252;10.390;2023-04-03T02:02:09;5.83;;;1.80;;
10884;SDS011;5495;53.252;10.390;2023-04-03T02:04:39;4.87;;;1.67;;
10884;SDS011;5495;53.252;10.390;2023-04-03T02:07:06;2.87;;;1.77;;
10884;SDS011;5495;53.252;10.390;2023-04-03T02:09:38;4.67;;;1.63;;
10884;SDS011;5495;53.252;10.390;2023-04-03T02:12:14;4.13;;;1.63;;
10884;SDS011;5495;53.252;10.390;2023-04-03T02:14:41;6.17;;;1.80;;
10884;SDS011;5495;53.252;10.390;2023-04-03T02:17:12;5.63;;;1.90;;
10884;SDS011;5495;53.252;10.390;2023-04-03T02:19:46;5.83;;;1.70;;
10884;SDS011;5495;53.252;10.390;2023-04-03T02:22:13;2.70;;;1.30;;
10884;SDS011;5495;53.252;10.390;2023-04-03T02:24:48;5.73;;;1.40;;
10884;SDS011;5495;53.252;10.390;2023-04-03T02:27:16;6.83;;;1.67;;
10884;SDS011;5495;53.252;10.390;2023-04-03T02:29:48;5.40;;;1.60;;
10884;SDS011;5495;53.252;10.390;2023-04-03T02:32:17;5.00;;;1.87;;
10884;SDS011;5495;53.252;10.390;2023-04-03T02:34:51;3.53;;;1.27;;
10884;SDS011;5495;53.252;10.390;2023-04-03T02:37:26;5.97;;;1.80;;
10884;SDS011;5495;53.252;10.390;2023-04-03T02:39:53;5.43;;;1.17;;
10884;SDS011;5495;53.252;10.390;2023-04-03T02:42:29;1.70;;;1.40;;
10884;SDS011;5495;53.252;10.390;2023-04-03T02:45:07;6.67;;;1.30;;
10884;SDS011;5495;53.252;10.390;2023-04-03T02:47:36;2.77;;;1.63;;
10884;SDS011;5495;53.252;10.390;2023-04-03T02:50:05;3.30;;;1.60;;
10884;SDS011;5495;53.252;10.390;2023-04-03T02:52:39;2.23;;;1.20;;
10884;SDS011;5495;53.252;10.390;2023-04-03T02:55:06;2.63;;;1.20;;
10884;SDS011;5495;53.252;10.390;2023-04-03T02:57:41;2.50;;;1.47;;
10884;SDS011;5495;53.252;10.390;2023-04-03T03:00:13;1.53;;;1.30;;
10884;SDS011;5495;53.252;10.390;2023-04-03T03:02:40;6.00;;;1.60;;
10884;SDS011;5495;53.252;10.390;2023-04-03T03:05:14;4.20;;;1.47;;
10884;SDS011;5495;53.252;10.390;2023-04-03T03:07:42;6.83;;;1.80;;
10884;SDS011;5495;53.252;10.390;2023-04-03T03:10:16;11.17;;;1.97;;
10884;SDS011;5495;53.252;10.390;2023-04-03T03:12:47;4.73;;;1.60;;
10884;SDS011;5495;53.252;10.390;2023-04-03T03:15:21;3.23;;;1.43;;
10884;SDS011;5495;53.252;10.390;2023-04-03T03:17:55;4.07;;;1.33;;
10884;SDS011;5495;53.252;10.390;2023-04-03T03:20:25;4.73;;;1.57;;
10884;SDS011;5495;53.252;10.390;2023-04-03T03:28:40;3.97;;;1.63;;
10884;SDS011;5495;53.252;10.390;2023-04-03T03:31:10;3.70;;;1.70;;
10884;SDS011;5495;53.252;10.390;2023-04-03T03:33:44;3.43;;;1.57;;
10884;SDS011;5495;53.252;10.390;2023-04-03T03:36:22;2.43;;;1.50;;
10884;SDS011;5495;53.252;10.390;2023-04-03T03:38:54;6.17;;;1.80;;
10884;SDS011;5495;53.252;10.390;2023-04-03T03:41:22;2.80;;;1.43;;
10884;SDS011;5495;53.252;10.390;2023-04-03T03:43:57;3.20;;;1.67;;
10884;SDS011;5495;53.252;10.390;2023-04-03T03:46:29;5.60;;;1.20;;
10884;SDS011;5495;53.252;10.390;2023-04-03T03:48:59;2.80;;;1.33;;
10884;SDS011;5495;53.252;10.390;2023-04-03T03:51:52;3.60;;;1.80;;
10884;SDS011;5495;53.252;10.390;2023-04-03T03:54:25;3.17;;;1.60;;
10884;SDS011;5495;53.252;10.390;2023-04-03T03:57:01;2.60;;;1.77;;
10884;SDS011;5495;53.252;10.390;2023-04-03T03:59:30;2.40;;;1.60;;
10884;SDS011;5495;53.252;10.390;2023-04-03T04:02:03;3.63;;;1.50;;
10884;SDS011;5495;53.252;10.390;2023-04-03T04:04:38;3.57;;;1.70;;
10884;SDS011;5495;53.252;10.390;2023-04-03T04:07:10;6.47;;;1.77;;
10884;SDS011;5495;53.252;10.390;2023-04-03T04:09:47;3.03;;;1.47;;
10884;SDS011;5495;53.252;10.390;2023-04-03T04:12:19;2.17;;;1.60;;
10884;SDS011;5495;53.252;10.390;2023-04-03T04:14:48;3.90;;;1.77;;
10884;SDS011;5495;53.252;10.390;2023-04-03T04:17:25;6.47;;;1.70;;
10884;SDS011;5495;53.252;10.390;2023-04-03T04:19:56;3.20;;;1.73;;
10884;SDS011;5495;53.252;10.390;2023-04-03T04:22:27;3.70;;;1.60;;
10884;SDS011;5495;53.252;10.390;2023-04-03T04:24:56;3.10;;;1.60;;
10884;SDS011;5495;53.252;10.390;2023-04-03T04:27:32;1.90;;;1.37;;
10884;SDS011;5495;53.252;10.390;2023-04-03T04:30:01;8.63;;;1.90;;
10884;SDS011;5495;53.252;10.390;2023-04-03T04:32:37;4.30;;;1.97;;
10884;SDS011;5495;53.252;10.390;2023-04-03T04:35:12;3.37;;;1.70;;
10884;SDS011;5495;53.252;10.390;2023-04-03T04:37:44;3.60;;;1.80;;
10884;SDS011;5495;53.252;10.390;2023-04-03T04:40:23;4.23;;;1.67;;
10884;SDS011;5495;53.252;10.390;2023-04-03T04:42:58;5.00;;;1.70;;
10884;SDS011;5495;53.252;10.390;2023-04-03T04:45:40;1.93;;;1.50;;
10884;SDS011;5495;53.252;10.390;2023-04-03T04:48:11;8.20;;;1.90;;
10884;SDS011;5495;53.252;10.390;2023-04-03T04:50:40;5.10;;;1.60;;
10884;SDS011;5495;53.252;10.390;2023-04-03T04:53:25;2.83;;;1.63;;
10884;SDS011;5495;53.252;10.390;2023-04-03T04:56:03;4.23;;;1.50;;
10884;SDS011;5495;53.252;10.390;2023-04-03T04:58:35;4.70;;;1.80;;
10884;SDS011;5495;53.252;10.390;2023-04-03T05:01:25;8.03;;;1.90;;
10884;SDS011;5495;53.252;10.390;2023-04-03T05:03:58;5.10;;;1.83;;
10884;SDS011;5495;53.252;10.390;2023-04-03T05:06:26;4.60;;;1.30;;
10884;SDS011;5495;53.252;10.390;2023-04-03T05:09:12;6.50;;;1.67;;
10884;SDS011;5495;53.252;10.390;2023-04-03T05:11:47;2.27;;;1.40;;
10884;SDS011;5495;53.252;10.390;2023-04-03T05:14:17;3.27;;;1.47;;
10884;SDS011;5495;53.252;10.390;2023-04-03T05:16:55;6.00;;;1.60;;
10884;SDS011;5495;53.252;10.390;2023-04-03T05:19:27;3.47;;;1.80;;
10884;SDS011;5495;53.252;10.390;2023-04-03T05:21:59;6.10;;;1.80;;
10884;SDS011;5495;53.252;10.390;2023-04-03T05:24:33;3.23;;;1.53;;
10884;SDS011;5495;53.252;10.390;2023-04-03T05:27:13;6.53;;;1.90;;
10884;SDS011;5495;53.252;10.390;2023-04-03T05:29:58;4.43;;;1.70;;
10884;SDS011;5495;53.252;10.390;2023-04-03T05:32:36;5.10;;;2.00;;
10884;SDS011;5495;53.252;10.390;2023-04-03T05:38:00;4.07;;;1.70;;
10884;SDS011;5495;53.252;10.390;2023-04-03T05:40:44;4.93;;;1.83;;
10884;SDS011;5495;53.252;10.390;2023-04-03T05:43:13;5.80;;;2.43;;
10884;SDS011;5495;53.252;10.390;2023-04-03T05:45:54;6.90;;;3.00;;
10884;SDS011;5495;53.252;10.390;2023-04-03T05:48:39;7.00;;;3.10;;
10884;SDS011;5495;53.252;10.390;2023-04-03T05:51:13;6.03;;;3.13;;
10884;SDS011;5495;53.252;10.390;2023-04-03T05:53:52;9.50;;;3.90;;
10884;SDS011;5495;53.252;10.390;2023-04-03T05:56:32;8.17;;;2.77;;
10884;SDS011;5495;53.252;10.390;2023-04-03T05:58:59;5.57;;;2.67;;
10884;SDS011;5495;53.252;10.390;2023-04-03T06:01:28;5.10;;;2.10;;
10884;SDS011;5495;53.252;10.390;2023-04-03T06:03:56;5.50;;;2.23;;
10884;SDS011;5495;53.252;10.390;2023-04-03T06:09:27;3.10;;;2.13;;
10884;SDS011;5495;53.252;10.390;2023-04-03T06:12:03;4.57;;;2.17;;
10884;SDS011;5495;53.252;10.390;2023-04-03T06:14:30;4.47;;;1.87;;
10884;SDS011;5495;53.252;10.390;2023-04-03T06:16:59;2.87;;;1.73;;
10884;SDS011;5495;53.252;10.390;2023-04-03T06:19:26;4.07;;;1.70;;
10884;SDS011;5495;53.252;10.390;2023-04-03T06:21:57;5.30;;;1.80;;
10884;SDS011;5495;53.252;10.390;2023-04-03T06:24:24;4.37;;;1.77;;
10884;SDS011;5495;53.252;10.390;2023-04-03T06:29:48;3.57;;;1.57;;
10884;SDS011;5495;53.252;10.390;2023-04-03T06:32:39;4.60;;;1.43;;
10884;SDS011;5495;53.252;10.390;2023-04-03T06:35:08;4.60;;;2.03;;
10884;SDS011;5495;53.252;10.390;2023-04-03T06:37:35;4.47;;;1.70;;
10884;SDS011;5495;53.252;10.390;2023-04-03T06:43:10;8.70;;;1.83;;
10884;SDS011;5495;53.252;10.390;2023-04-03T06:45:41;2.93;;;1.67;;
10884;SDS011;5495;53.252;10.390;2023-04-03T06:48:18;4.67;;;1.40;;
10884;SDS011;5495;53.252;10.390;2023-04-03T06:50:46;2.90;;;1.70;;
10884;SDS011;5495;53.252;10.390;2023-04-03T06:53:25;4.43;;;1.90;;
10884;SDS011;5495;53.252;10.390;2023-04-03T06:57:13;3.47;;;1.37;;
10884;SDS011;5495;53.252;10.390;2023-04-03T06:59:06;2.37;;;1.40;;
10884;SDS011;5495;53.252;10.390;2023-04-03T07:01:33;3.13;;;1.30;;
10884;SDS011;5495;53.252;10.390;2023-04-03T07:04:14;3.73;;;1.30;;
10884;SDS011;5495;53.252;10.390;2023-04-03T07:06:44;2.10;;;1.20;;
10884;SDS011;5495;53.252;10.390;2023-04-03T07:09:15;4.17;;;1.37;;
10884;SDS011;5495;53.252;10.390;2023-04-03T07:14:17;4.33;;;1.10;;
10884;SDS011;5495;53.252;10.390;2023-04-03T07:16:46;4.13;;;1.30;;
10884;SDS011;5495;53.252;10.390;2023-04-03T07:19:15;2.00;;;1.40;;
10884;SDS011;5495;53.252;10.390;2023-04-03T07:21:52;6.23;;;1.30;;
10884;SDS011;5495;53.252;10.390;2023-04-03T07:24:27;2.37;;;1.13;;
10884;SDS011;5495;53.252;10.390;2023-04-03T07:27:19;6.10;;;1.13;;
10884;SDS011;5495;53.252;10.390;2023-04-03T07:29:52;5.20;;;1.40;;
10884;SDS011;5495;53.252;10.390;2023-04-03T07:32:26;2.00;;;1.03;;
10884;SDS011;5495;53.252;10.390;2023-04-03T07:34:55;3.93;;;1.37;;
10884;SDS011;5495;53.252;10.390;2023-04-03T07:37:25;1.93;;;0.87;;
10884;SDS011;5495;53.252;10.390;2023-04-03T07:39:53;4.47;;;0.90;;
10884;SDS011;5495;53.252;10.390;2023-04-03T07:42:22;1.73;;;1.13;;
10884;SDS011;5495;53.252;10.390;2023-04-03T07:44:50;2.57;;;1.00;;
10884;SDS011;5495;53.252;10.390;2023-04-03T07:47:19;1.87;;;1.00;;
10884;SDS011;5495;53.252;10.390;2023-04-03T07:49:50;2.90;;;1.10;;
10884;SDS011;5495;53.252;10.390;2023-04-03T07:52:19;3.00;;;1.03;;
10884;SDS011;5495;53.252;10.390;2023-04-03T07:54:48;2.07;;;0.77;;
10884;SDS011;5495;53.252;10.390;2023-04-03T07:57:18;2.83;;;0.90;;
10884;SDS011;5495;53.252;10.390;2023-04-03T07:59:45;2.60;;;1.20;;
10884;SDS011;5495;53.252;10.390;2023-04-03T08:02:15;1.73;;;0.90;;
10884;SDS011;5495;53.252;10.390;2023-04-03T08:04:42;3.13;;;1.00;;
10884;SDS011;5495;53.252;10.390;2023-04-03T08:07:09;1.13;;;0.77;;
10884;SDS011;5495;53.252;10.390;2023-04-03T08:09:35;1.70;;;0.90;;
10884;SDS011;5495;53.252;10.390;2023-04-03T08:12:06;0.70;;;0.70;;
10884;SDS011;5495;53.252;10.390;2023-04-03T08:14:36;1.57;;;0.90;;
10884;SDS011;5495;53.252;10.390;2023-04-03T08:17:07;1.20;;;0.83;;
10884;SDS011;5495;53.252;10.390;2023-04-03T08:19:47;3.30;;;1.10;;
10884;SDS011;5495;53.252;10.390;2023-04-03T08:22:17;2.47;;;1.20;;
10884;SDS011;5495;53.252;10.390;2023-04-03T08:24:45;3.63;;;1.00;;
10884;SDS011;5495;53.252;10.390;2023-04-03T08:27:13;3.17;;;1.10;;
10884;SDS011;5495;53.252;10.390;2023-04-03T08:29:41;1.37;;;0.70;;
10884;SDS011;5495;53.252;10.390;2023-04-03T08:32:13;1.40;;;0.70;;
10884;SDS011;5495;53.252;10.390;2023-04-03T08:34:43;1.60;;;0.90;;
10884;SDS011;5495;53.252;10.390;2023-04-03T08:37:13;1.43;;;0.70;;
10884;SDS011;5495;53.252;10.390;2023-04-03T08:39:41;2.50;;;1.40;;
10884;SDS011;5495;53.252;10.390;2023-04-03T08:42:12;3.67;;;0.80;;
10884;SDS011;5495;53.252;10.390;2023-04-03T08:44:47;1.23;;;0.67;;
10884;SDS011;5495;53.252;10.390;2023-04-03T08:47:23;1.57;;;0.70;;
10884;SDS011;5495;53.252;10.390;2023-04-03T08:49:58;1.37;;;0.60;;
10884;SDS011;5495;53.252;10.390;2023-04-03T08:52:30;0.83;;;0.50;;
10884;SDS011;5495;53.252;10.390;2023-04-03T08:55:06;2.30;;;0.60;;
10884;SDS011;5495;53.252;10.390;2023-04-03T08:57:46;2.97;;;1.00;;
10884;SDS011;5495;53.252;10.390;2023-04-03T09:00:16;1.10;;;0.70;;
10884;SDS011;5495;53.252;10.390;2023-04-03T09:02:45;1.93;;;1.20;;
10884;SDS011;5495;53.252;10.390;2023-04-03T09:05:16;3.97;;;1.50;;
10884;SDS011;5495;53.252;10.390;2023-04-03T09:07:48;0.77;;;0.57;;
10884;SDS011;5495;53.252;10.390;2023-04-03T09:10:23;0.93;;;0.80;;
10884;SDS011;5495;53.252;10.390;2023-04-03T09:12:58;1.57;;;0.83;;
10884;SDS011;5495;53.252;10.390;2023-04-03T09:15:30;0.73;;;0.60;;
10884;SDS011;5495;53.252;10.390;2023-04-03T09:18:12;1.60;;;0.70;;
10884;SDS011;5495;53.252;10.390;2023-04-03T09:20:45;1.90;;;0.90;;
10884;SDS011;5495;53.252;10.390;2023-04-03T09:23:21;2.27;;;1.20;;
10884;SDS011;5495;53.252;10.390;2023-04-03T09:25:56;2.10;;;0.80;;
10884;SDS011;5495;53.252;10.390;2023-04-03T09:28:38;3.77;;;1.23;;
10884;SDS011;5495;53.252;10.390;2023-04-03T09:31:13;1.57;;;0.60;;
10884;SDS011;5495;53.252;10.390;2023-04-03T09:33:45;1.23;;;0.90;;
10884;SDS011;5495;53.252;10.390;2023-04-03T09:36:15;1.53;;;0.90;;
10884;SDS011;5495;53.252;10.390;2023-04-03T09:39:14;1.93;;;1.10;;
10884;SDS011;5495;53.252;10.390;2023-04-03T09:41:43;2.23;;;0.67;;
10884;SDS011;5495;53.252;10.390;2023-04-03T09:44:33;2.30;;;1.10;;
10884;SDS011;5495;53.252;10.390;2023-04-03T09:47:25;1.57;;;1.00;;
10884;SDS011;5495;53.252;10.390;2023-04-03T09:50:09;1.97;;;0.90;;
10884;SDS011;5495;53.252;10.390;2023-04-03T09:52:46;1.40;;;0.90;;
10884;SDS011;5495;53.252;10.390;2023-04-03T09:55:17;1.43;;;0.73;;
10884;SDS011;5495;53.252;10.390;2023-04-03T09:57:51;2.40;;;0.90;;
10884;SDS011;5495;53.252;10.390;2023-04-03T10:00:24;1.67;;;0.80;;
10884;SDS011;5495;53.252;10.390;2023-04-03T10:03:01;4.13;;;0.53;;
10884;SDS011;5495;53.252;10.390;2023-04-03T10:05:33;2.10;;;0.80;;
10884;SDS011;5495;53.252;10.390;2023-04-03T10:08:19;2.63;;;0.73;;
10884;SDS011;5495;53.252;10.390;2023-04-03T10:13:51;2.30;;;0.80;;
10884;SDS011;5495;53.252;10.390;2023-04-03T10:16:20;1.10;;;0.70;;
10884;SDS011;5495;53.252;10.390;2023-04-03T10:19:13;2.70;;;0.80;;
10884;SDS011;5495;53.252;10.390;2023-04-03T10:21:55;0.70;;;0.50;;
10884;SDS011;5495;53.252;10.390;2023-04-03T10:24:39;1.00;;;0.70;;
10884;SDS011;5495;53.252;10.390;2023-04-03T10:27:18;1.57;;;0.70;;
10884;SDS011;5495;53.252;10.390;2023-04-03T10:29:54;3.13;;;0.67;;
10884;SDS011;5495;53.252;10.390;2023-04-03T10:35:21;1.40;;;0.63;;
10884;SDS011;5495;53.252;10.390;2023-04-03T10:38:01;2.57;;;0.90;;
10884;SDS011;5495;53.252;10.390;2023-04-03T10:40:39;2.23;;;0.90;;
10884;SDS011;5495;53.252;10.390;2023-04-03T10:43:15;1.20;;;0.83;;
10884;SDS011;5495;53.252;10.390;2023-04-03T10:45:56;1.77;;;0.80;;
10884;SDS011;5495;53.252;10.390;2023-04-03T10:51:36;1.50;;;0.70;;
10884;SDS011;5495;53.252;10.390;2023-04-03T10:54:11;2.37;;;0.70;;
10884;SDS011;5495;53.252;10.390;2023-04-03T10:56:44;0.90;;;0.70;;
10884;SDS011;5495;53.252;10.390;2023-04-03T10:59:28;2.73;;;0.80;;
10884;SDS011;5495;53.252;10.390;2023-04-03T11:02:01;1.60;;;0.70;;
10884;SDS011;5495;53.252;10.390;2023-04-03T11:04:37;1.23;;;0.83;;
10884;SDS011;5495;53.252;10.390;2023-04-03T11:07:22;2.47;;;0.77;;
10884;SDS011;5495;53.252;10.390;2023-04-03T11:09:56;2.97;;;1.00;;
10884;SDS011;5495;53.252;10.390;2023-04-03T11:12:33;1.57;;;0.90;;
10884;SDS011;5495;53.252;10.390;2023-04-03T11:15:12;3.27;;;1.00;;
10884;SDS011;5495;53.252;10.390;2023-04-03T11:17:53;2.30;;;1.10;;
10884;SDS011;5495;53.252;10.390;2023-04-03T11:20:36;1.93;;;0.90;;
10884;SDS011;5495;53.252;10.390;2023-04-03T11:23:19;2.30;;;0.83;;
10884;SDS011;5495;53.252;10.390;2023-04-03T11:26:04;2.13;;;1.00;;
10884;SDS011;5495;53.252;10.390;2023-04-03T11:28:39;2.57;;;1.00;;
10884;SDS011;5495;53.252;10.390;2023-04-03T11:31:15;1.60;;;0.70;;
10884;SDS011;5495;53.252;10.390;2023-04-03T11:34:05;2.23;;;0.73;;
10884;SDS011;5495;53.252;10.390;2023-04-03T11:36:46;2.17;;;0.97;;
10884;SDS011;5495;53.252;10.390;2023-04-03T11:39:21;2.03;;;0.97;;
10884;SDS011;5495;53.252;10.390;2023-04-03T11:42:14;2.97;;;1.00;;
10884;SDS011;5495;53.252;10.390;2023-04-03T11:44:46;1.97;;;0.90;;
10884;SDS011;5495;53.252;10.390;2023-04-03T11:53:26;1.30;;;0.70;;
10884;SDS011;5495;53.252;10.390;2023-04-03T11:56:02;2.23;;;0.80;;
10884;SDS011;5495;53.252;10.390;2023-04-03T11:59:16;0.90;;;0.80;;
10884;SDS011;5495;53.252;10.390;2023-04-03T12:17:53;1.67;;;0.93;;
10884;SDS011;5495;53.252;10.390;2023-04-03T12:23:29;1.97;;;1.10;;
10884;SDS011;5495;53.252;10.390;2023-04-03T12:25:59;1.60;;;0.80;;
10884;SDS011;5495;53.252;10.390;2023-04-03T12:28:38;0.87;;;0.63;;
10884;SDS011;5495;53.252;10.390;2023-04-03T12:31:15;2.00;;;1.03;;
10884;SDS011;5495;53.252;10.390;2023-04-03T12:33:51;1.77;;;1.40;;
10884;SDS011;5495;53.252;10.390;2023-04-03T12:36:54;1.97;;;0.93;;
10884;SDS011;5495;53.252;10.390;2023-04-03T12:39:37;1.17;;;0.80;;
10884;SDS011;5495;53.252;10.390;2023-04-03T12:42:39;1.80;;;0.70;;
10884;SDS011;5495;53.252;10.390;2023-04-03T12:45:24;2.70;;;0.73;;
10884;SDS011;5495;53.252;10.390;2023-04-03T12:47:57;1.40;;;0.73;;
10884;SDS011;5495;53.252;10.390;2023-04-03T12:50:30;3.03;;;0.90;;
10884;SDS011;5495;53.252;10.390;2023-04-03T12:53:18;2.93;;;0.90;;
10884;SDS011;5495;53.252;10.390;2023-04-03T12:55:52;1.70;;;0.80;;
10884;SDS011;5495;53.252;10.390;2023-04-03T12:58:27;1.53;;;1.00;;
10884;SDS011;5495;53.252;10.390;2023-04-03T13:00:59;2.80;;;1.20;;
10884;SDS011;5495;53.252;10.390;2023-04-03T13:03:30;1.40;;;0.70;;
10884;SDS011;5495;53.252;10.390;2023-04-03T13:05:58;2.33;;;0.83;;
10884;SDS011;5495;53.252;10.390;2023-04-03T13:08:35;1.33;;;0.73;;
10884;SDS011;5495;53.252;10.390;2023-04-03T13:11:05;2.73;;;0.90;;
10884;SDS011;5495;53.252;10.390;2023-04-03T13:13:55;1.40;;;0.80;;
10884;SDS011;5495;53.252;10.390;2023-04-03T13:16:23;1.03;;;0.70;;
10884;SDS011;5495;53.252;10.390;2023-04-03T13:19:06;1.13;;;0.60;;
10884;SDS011;5495;53.252;10.390;2023-04-03T13:21:45;2.37;;;0.80;;
10884;SDS011;5495;53.252;10.390;2023-04-03T13:24:16;3.27;;;0.90;;
10884;SDS011;5495;53.252;10.390;2023-04-03T13:26:43;1.37;;;0.90;;
10884;SDS011;5495;53.252;10.390;2023-04-03T13:29:18;1.73;;;0.87;;
10884;SDS011;5495;53.252;10.390;2023-04-03T13:31:51;2.33;;;0.93;;
10884;SDS011;5495;53.252;10.390;2023-04-03T13:34:22;2.20;;;0.97;;
10884;SDS011;5495;53.252;10.390;2023-04-03T13:36:57;1.93;;;1.03;;
10884;SDS011;5495;53.252;10.390;2023-04-03T13:39:37;2.43;;;0.70;;
10884;SDS011;5495;53.252;10.390;2023-04-03T13:42:21;1.57;;;0.70;;
10884;SDS011;5495;53.252;10.390;2023-04-03T13:45:06;2.13;;;0.93;;
10884;SDS011;5495;53.252;10.390;2023-04-03T13:47:53;1.60;;;1.40;;
10884;SDS011;5495;53.252;10.390;2023-04-03T13:50:58;1.80;;;0.90;;
10884;SDS011;5495;53.252;10.390;2023-04-03T13:53:41;1.53;;;0.80;;
10884;SDS011;5495;53.252;10.390;2023-04-03T13:56:21;1.10;;;0.60;;
10884;SDS011;5495;53.252;10.390;2023-04-03T13:58:56;1.53;;;0.87;;
10884;SDS011;5495;53.252;10.390;2023-04-03T14:01:36;1.73;;;0.60;;
10884;SDS011;5495;53.252;10.390;2023-04-03T14:04:20;0.73;;;0.60;;
10884;SDS011;5495;53.252;10.390;2023-04-03T14:06:58;2.10;;;1.03;;
10884;SDS011;5495;53.252;10.390;2023-04-03T14:09:45;1.13;;;0.80;;
10884;SDS011;5495;53.252;10.390;2023-04-03T14:12:40;1.03;;;0.60;;
10884;SDS011;5495;53.252;10.390;2023-04-03T14:15:16;1.57;;;0.80;;
10884;SDS011;5495;53.252;10.390;2023-04-03T14:20:57;2.13;;;0.90;;
10884;SDS011;5495;53.252;10.390;2023-04-03T14:29:35;1.13;;;0.70;;
10884;SDS011;5495;53.252;10.390;2023-04-03T14:32:06;1.33;;;0.63;;
10884;SDS011;5495;53.252;10.390;2023-04-03T14:35:11;0.77;;;0.60;;
10884;SDS011;5495;53.252;10.390;2023-04-03T14:38:05;2.23;;;0.90;;
10884;SDS011;5495;53.252;10.390;2023-04-03T14:41:10;0.97;;;0.70;;
10884;SDS011;5495;53.252;10.390;2023-04-03T14:53:28;1.53;;;0.70;;
10884;SDS011;5495;53.252;10.390;2023-04-03T14:55:58;3.63;;;0.70;;
10884;SDS011;5495;53.252;10.390;2023-04-03T14:58:27;1.57;;;0.80;;
10884;SDS011;5495;53.252;10.390;2023-04-03T15:00:59;0.93;;;0.67;;
10884;SDS011;5495;53.252;10.390;2023-04-03T15:03:27;1.90;;;0.73;;
10884;SDS011;5495;53.252;10.390;2023-04-03T15:05:54;1.33;;;0.67;;
10884;SDS011;5495;53.252;10.390;2023-04-03T15:08:23;4.40;;;1.03;;
10884;SDS011;5495;53.252;10.390;2023-04-03T15:10:54;1.53;;;0.70;;
10884;SDS011;5495;53.252;10.390;2023-04-03T15:13:25;1.20;;;0.80;;
10884;SDS011;5495;53.252;10.390;2023-04-03T15:15:52;1.70;;;0.87;;
10884;SDS011;5495;53.252;10.390;2023-04-03T15:18:22;1.40;;;0.90;;
10884;SDS011;5495;53.252;10.390;2023-04-03T15:21:03;1.20;;;0.70;;
10884;SDS011;5495;53.252;10.390;2023-04-03T15:23:32;1.43;;;0.60;;
10884;SDS011;5495;53.252;10.390;2023-04-03T15:25:59;1.20;;;0.70;;
10884;SDS011;5495;53.252;10.390;2023-04-03T15:28:28;0.70;;;0.70;;
10884;SDS011;5495;53.252;10.390;2023-04-03T15:30:58;2.60;;;0.63;;
10884;SDS011;5495;53.252;10.390;2023-04-03T15:33:26;1.63;;;0.80;;
10884;SDS011;5495;53.252;10.390;2023-04-03T15:35:55;1.80;;;0.87;;
10884;SDS011;5495;53.252;10.390;2023-04-03T15:38:24;1.20;;;0.70;;
10884;SDS011;5495;53.252;10.390;2023-04-03T15:40:51;1.87;;;0.87;;
10884;SDS011;5495;53.252;10.390;2023-04-03T15:43:19;2.27;;;0.80;;
10884;SDS011;5495;53.252;10.390;2023-04-03T15:45:46;0.80;;;0.60;;
10884;SDS011;5495;53.252;10.390;2023-04-03T15:48:15;1.53;;;0.90;;
10884;SDS011;5495;53.252;10.390;2023-04-03T15:50:42;1.20;;;0.80;;
10884;SDS011;5495;53.252;10.390;2023-04-03T15:53:13;2.23;;;0.70;;
10884;SDS011;5495;53.252;10.390;2023-04-03T15:55:43;1.07;;;0.70;;
10884;SDS011;5495;53.252;10.390;2023-04-03T15:58:10;3.97;;;0.90;;
10884;SDS011;5495;53.252;10.390;2023-04-03T16:00:40;1.00;;;0.80;;
10884;SDS011;5495;53.252;10.390;2023-04-03T16:03:15;1.33;;;0.83;;
10884;SDS011;5495;53.252;10.390;2023-04-03T16:05:44;0.93;;;0.70;;
10884;SDS011;5495;53.252;10.390;2023-04-03T16:08:16;1.37;;;0.70;;
10884;SDS011;5495;53.252;10.390;2023-04-03T16:10:44;1.27;;;0.90;;
10884;SDS011;5495;53.252;10.390;2023-04-03T16:13:13;1.23;;;0.70;;
10884;SDS011;5495;53.252;10.390;2023-04-03T16:15:40;2.47;;;0.90;;
10884;SDS011;5495;53.252;10.390;2023-04-03T16:18:08;3.07;;;0.90;;
10884;SDS011;5495;53.252;10.390;2023-04-03T16:20:36;0.90;;;0.70;;
10884;SDS011;5495;53.252;10.390;2023-04-03T16:23:03;1.00;;;0.77;;
10884;SDS011;5495;53.252;10.390;2023-04-03T16:25:32;1.83;;;0.80;;
10884;SDS011;5495;53.252;10.390;2023-04-03T16:28:00;1.40;;;0.83;;
10884;SDS011;5495;53.252;10.390;2023-04-03T16:30:29;1.10;;;0.67;;
10884;SDS011;5495;53.252;10.390;2023-04-03T16:32:56;2.23;;;0.83;;
10884;SDS011;5495;53.252;10.390;2023-04-03T16:35:24;3.03;;;1.00;;
10884;SDS011;5495;53.252;10.390;2023-04-03T16:37:51;1.63;;;0.87;;
10884;SDS011;5495;53.252;10.390;2023-04-03T16:40:19;4.53;;;0.97;;
10884;SDS011;5495;53.252;10.390;2023-04-03T16:42:51;2.30;;;1.00;;
10884;SDS011;5495;53.252;10.390;2023-04-03T16:45:18;1.93;;;0.80;;
10884;SDS011;5495;53.252;10.390;2023-04-03T16:47:45;2.50;;;1.10;;
10884;SDS011;5495;53.252;10.390;2023-04-03T16:50:18;1.40;;;0.87;;
10884;SDS011;5495;53.252;10.390;2023-04-03T16:52:47;2.83;;;0.80;;